Latest Weather Observations for Mackay Airport

IDQ60801

Issued at 10:02 am EST Sunday 21 December 2014 (issued every 30 minutes, with the page automatically refreshed every 10 minutes)

About weather observations | Map of weather stations | Latest weather observations for QLD | Other Formats
Station Details ID: 033045 Name: MACKAY AERO Lat: -21.17 Lon: 149.18 Height: 4.7 m
Data from the previous 72 hours. | See also: Recent months at Mackay Airport
Date/Time
EST
Temp
°C
App
Temp
°C
Dew
Point
Rel
Hum
%
Delta-T
°C
Wind Press
QNH
hPa
Press
MSL
hPa
Rain
since 9 am
mm
Dir
 
Spd
km/h
Gust
km/h
Spd
kts
Gust
kts
21/10:00am 29.2 29.0 19.8 57 6.1 E 20 28 11 15 1014.8 1014.8 0.0
21/09:30am 30.2 30.2 20.2 55 6.6 E 20 28 11 15 1014.7 1014.7 0.0
21/09:00am 30.8 31.4 21.0 56 6.5 ENE 19 26 10 14 1014.6 1014.6 0.0
21/08:30am 29.1 29.2 20.3 59 5.8 E 20 26 11 14 1014.4 1014.4 0.0
21/08:00am 29.1 28.9 19.7 57 6.1 E 20 26 11 14 1014.3 1014.3 0.0
21/07:30am 29.2 29.2 20.9 61 5.5 E 22 28 12 15 1014.1 1014.1 0.0
21/07:00am 28.5 28.7 20.5 62 5.3 E 20 26 11 14 1014.0 1014.0 0.0
21/06:30am 27.6 30.9 22.5 74 3.4 SE 9 24 5 13 1013.5 1013.5 0.0
21/06:00am 23.0 25.2 21.1 89 1.2 WSW 11 13 6 7 1013.2 1013.2 0.0
21/05:30am 22.6 24.3 20.9 90 1.1 W 13 13 7 7 1012.8 1012.8 0.0
21/05:00am 22.6 24.8 20.5 88 1.4 WSW 9 13 5 7 1012.4 1012.4 0.0
21/04:30am 23.4 26.6 21.3 88 1.4 SSE 6 11 3 6 1011.9 1011.9 0.0
21/04:00am 23.6 26.8 21.3 87 1.5 SW 6 9 3 5 1011.8 1011.8 0.0
21/03:30am 23.3 26.4 21.0 87 1.5 WSW 6 7 3 4 1011.7 1011.7 0.0
21/03:00am 22.7 25.3 20.0 85 1.7 WSW 6 9 3 5 1012.0 1012.0 0.0
21/02:00am 26.2 27.7 21.2 74 3.3 ENE 15 19 8 10 1012.2 1012.2 0.0
21/01:30am 26.4 28.0 21.4 74 3.3 ENE 15 19 8 10 1012.5 1012.5 0.0
21/01:00am 26.8 27.6 21.3 72 3.7 E 19 24 10 13 1012.5 1012.5 0.0
21/12:30am 26.4 28.1 21.6 75 3.2 E 15 19 8 10 1013.0 1013.0 0.0
21/12:00am 26.4 28.6 21.8 76 3.1 E 13 19 7 10 1013.2 1013.2 0.0
 
Date/Time
EST
Temp
°C
App
Temp
°C
Dew
Point
Rel
Hum
%
Delta-T
°C
Wind Press
QNH
hPa
Press
MSL
hPa
Rain
since 9 am
mm
Dir
 
Spd
km/h
Gust
km/h
Spd
kts
Gust
kts
20/11:30pm 26.5 27.3 21.3 73 3.4 E 19 24 10 13 1013.5 1013.5 0.0
20/11:00pm 26.5 26.9 21.0 72 3.6 E 20 30 11 16 1013.5 1013.5 0.0
20/10:30pm 26.6 27.0 20.9 71 3.8 ESE 20 28 11 15 1013.7 1013.7 0.0
20/10:00pm 26.7 27.6 21.5 73 3.5 E 19 24 10 13 1013.8 1013.8 0.0
20/09:30pm 26.7 27.2 20.8 70 3.9 ESE 19 24 10 13 1013.8 1013.8 0.0
20/09:00pm 26.9 27.0 21.2 71 3.8 E 22 30 12 16 1013.6 1013.6 0.0
20/08:30pm 26.8 26.8 20.9 70 3.9 E 22 30 12 16 1013.4 1013.4 0.0
20/08:00pm 27.0 26.7 21.1 70 3.9 E 24 30 13 16 1012.9 1012.9 0.0
20/07:30pm 26.9 26.9 21.0 70 3.9 E 22 28 12 15 1012.3 1012.3 0.0
20/07:00pm 27.2 27.6 21.7 72 3.7 E 22 28 12 15 1012.2 1012.2 0.0
20/06:30pm 27.6 27.5 21.4 69 4.1 ESE 24 30 13 16 1011.8 1011.8 0.0
20/06:00pm 28.2 28.9 22.2 70 4.0 ESE 22 30 12 16 1011.2 1011.2 0.0
20/05:30pm 28.6 28.5 22.3 68 4.3 ESE 26 33 14 18 1010.7 1010.7 0.0
20/05:00pm 29.4 29.5 21.9 64 5.1 ESE 24 32 13 17 1010.5 1010.5 0.0
20/04:30pm 29.6 29.8 22.1 64 5.1 ESE 24 30 13 16 1010.3 1010.3 0.0
20/04:00pm 30.8 31.2 22.4 61 5.7 ESE 24 30 13 16 1010.3 1010.3 0.0
20/03:30pm 30.9 31.3 22.5 61 5.7 ESE 24 30 13 16 1010.4 1010.4 0.0
20/03:00pm 30.5 30.7 22.7 63 5.3 ESE 26 33 14 18 1010.6 1010.6 0.0
20/02:30pm 30.8 31.5 22.9 62 5.4 ESE 24 32 13 17 1010.9 1010.9 0.0
20/02:00pm 30.2 30.6 22.4 63 5.3 ESE 24 30 13 16 1011.2 1011.2 0.0
20/01:30pm 30.5 31.3 22.4 62 5.5 E 22 32 12 17 1011.4 1011.4 0.0
20/01:00pm 30.8 32.6 23.2 64 5.2 ESE 19 26 10 14 1011.3 1011.3 0.0
20/12:30pm 30.8 32.1 22.7 62 5.5 E 20 26 11 14 1011.6 1011.6 0.0
20/12:00pm 30.8 31.8 22.1 59 5.9 E 20 24 11 13 1012.0 1012.0 0.0
20/11:30am 30.3 32.1 22.5 63 5.3 E 17 22 9 12 1012.5 1012.5 0.0
20/11:00am 30.1 32.5 22.3 63 5.3 ESE 13 20 7 11 1012.8 1012.8 0.0
20/10:30am 29.4 31.5 22.4 66 4.7 ESE 15 19 8 10 1013.0 1013.0 0.0
20/10:00am 29.5 32.3 23.0 68 4.4 ESE 13 17 7 9 1012.9 1012.9 0.0
20/09:30am 29.3 31.9 23.3 70 4.1 E 15 19 8 10 1012.9 1012.9 0.0
20/09:00am 29.0 31.9 23.2 71 4.0 E 13 19 7 10 1013.0 1013.0 1.4
20/08:30am 28.6 31.7 22.8 71 3.9 ESE 11 19 6 10 1012.9 1012.9 1.4
20/08:00am 28.0 31.1 23.6 77 3.0 ESE 13 20 7 11 1012.8 1012.8 1.4
20/07:30am 26.9 29.8 23.2 80 2.5 S 13 15 7 8 1012.6 1012.6 1.4
20/07:00am 26.0 29.5 23.5 86 1.7 SSE 11 15 6 8 1012.4 1012.4 1.4
20/06:30am 24.8 28.4 23.0 90 1.2 S 9 11 5 6 1012.2 1012.2 1.4
20/06:00am 24.3 28.5 23.4 95 0.6 SSW 7 9 4 5 1011.9 1011.9 1.4
20/05:30am 23.4 27.1 22.6 95 0.5 SSW 7 11 4 6 1011.5 1011.5 1.4
20/05:00am 23.9 27.5 23.0 95 0.6 SSW 9 11 5 6 1011.0 1011.0 1.4
20/04:30am 23.8 27.3 22.9 95 0.6 SSW 9 11 5 6 1010.8 1010.8 1.4
20/04:00am 24.0 27.2 23.0 94 0.7 SSW 11 13 6 7 1010.7 1010.7 1.4
20/03:30am 24.0 27.9 23.0 94 0.7 SSW 7 9 4 5 1010.8 1010.8 1.4
20/03:00am 24.4 28.3 23.0 92 0.9 SSE 7 11 4 6 1010.9 1010.9 1.4
20/02:57am 24.4 28.3 23.0 92 0.9 SSE 7 9 4 5 1010.9 1010.9 1.4
20/02:34am 24.6 28.3 23.2 92 0.9 SSE 9 11 5 6 1011.0 1011.0 0.4
20/02:30am 24.7 28.4 23.3 92 1.0 SSE 9 11 5 6 1011.0 1011.0 0.2
20/02:00am 24.3 27.3 22.7 91 1.1 SSE 11 13 6 7 1011.3 1011.3 0.0
20/01:30am 24.8 26.3 23.0 90 1.2 ESE 20 28 11 15 1011.5 1011.5 0.0
20/01:00am 25.9 31.3 23.2 85 1.8 CALM 0 0 0 0 1011.5 1011.5 0.0
20/12:30am 25.7 29.9 23.4 87 1.6 NNE 7 7 4 4 1011.9 1011.9 0.0
20/12:00am 25.6 29.1 22.1 81 2.3 NNE 7 7 4 4 1012.0 1012.0 0.0
 
Date/Time
EST
Temp
°C
App
Temp
°C
Dew
Point
Rel
Hum
%
Delta-T
°C
Wind Press
QNH
hPa
Press
MSL
hPa
Rain
since 9 am
mm
Dir
 
Spd
km/h
Gust
km/h
Spd
kts
Gust
kts
19/11:30pm 26.3 30.3 22.8 81 2.4 NNE 6 6 3 3 1012.1 1012.1 0.0
19/11:00pm 26.3 30.2 22.6 80 2.5 NNE 6 7 3 4 1012.6 1012.6 0.0
19/10:30pm 26.2 29.9 22.5 80 2.5 NNE 7 9 4 5 1012.6 1012.6 0.0
19/10:00pm 27.1 30.9 22.7 77 3.0 NNE 7 9 4 5 1012.7 1012.7 0.0
19/09:30pm 27.4 30.9 22.8 76 3.1 NNE 9 11 5 6 1012.5 1012.5 0.0
19/09:00pm 27.2 30.7 22.8 77 3.0 NNE 9 13 5 7 1012.4 1012.4 0.0
19/08:30pm 27.6 30.8 23.0 76 3.1 NNE 11 15 6 8 1012.2 1012.2 0.0
19/08:00pm 27.6 31.2 23.0 76 3.1 NNE 9 13 5 7 1011.9 1011.9 0.0
19/07:30pm 27.8 30.6 23.0 75 3.3 NNE 13 17 7 9 1011.5 1011.5 0.0
19/07:00pm 27.8 30.4 22.7 74 3.5 NNE 13 17 7 9 1011.1 1011.1 0.0
19/06:30pm 28.3 31.0 22.8 72 3.7 NE 13 15 7 8 1010.7 1010.7 0.0
19/06:00pm 28.7 30.7 22.2 68 4.4 NE 15 19 8 10 1010.4 1010.4 0.0
19/05:30pm 29.6 32.3 22.8 67 4.6 NE 13 17 7 9 1010.1 1010.1 0.0
19/05:00pm 30.0 32.3 22.7 65 5.0 NE 15 20 8 11 1009.8 1009.8 0.0
19/04:30pm 30.2 32.3 22.4 63 5.3 ENE 15 22 8 12 1009.8 1009.8 0.0
19/04:00pm 30.5 32.9 22.9 64 5.2 ENE 15 20 8 11 1009.8 1009.8 0.0
19/03:30pm 30.9 32.8 22.8 62 5.5 NE 17 22 9 12 1009.9 1009.9 0.0
19/03:00pm 30.3 32.1 22.5 63 5.3 NE 17 24 9 13 1010.1 1010.1 0.0
19/02:30pm 29.7 31.4 22.4 65 5.0 NE 17 24 9 13 1010.2 1010.2 0.0
19/02:00pm 30.1 31.4 22.3 63 5.3 ENE 19 24 10 13 1010.4 1010.4 0.0
19/01:30pm 30.2 31.5 21.6 60 5.8 ENE 17 20 9 11 1011.0 1011.0 0.0
19/01:00pm 30.1 31.6 22.0 62 5.5 ENE 17 20 9 11 1011.2 1011.2 0.0
19/12:30pm 30.8 32.5 22.4 61 5.7 ENE 17 22 9 12 1011.4 1011.4 0.0
19/12:00pm 30.4 32.2 21.2 58 6.2 ENE 13 19 7 10 1011.6 1011.6 0.0
19/11:30am 30.0 32.5 21.7 61 5.6 ENE 11 17 6 9 1012.0 1012.0 0.0
19/11:00am 29.0 31.3 22.0 66 4.7 E 13 17 7 9 1012.2 1012.2 0.0
19/10:30am 29.2 32.1 21.7 64 5.0 E 9 13 5 7 1012.2 1012.2 0.0
19/10:00am 29.1 31.5 21.6 64 5.0 ESE 11 17 6 9 1012.1 1012.1 0.0
19/09:30am 28.7 31.3 21.2 64 5.0 NNE 9 19 5 10 1012.0 1012.0 0.0
19/09:00am 28.7 31.3 21.2 64 5.0 SSW 9 13 5 7 1012.0 1012.0 0.0
19/08:30am 28.0 30.9 21.8 69 4.2 S 9 13 5 7 1012.1 1012.1 0.0
19/08:00am 27.5 30.6 21.5 70 4.0 SW 7 9 4 5 1011.9 1011.9 0.0
19/07:30am 26.8 30.0 21.3 72 3.7 SW 6 7 3 4 1011.6 1011.6 0.0
19/07:00am 26.1 29.2 21.5 76 3.1 SW 7 9 4 5 1011.3 1011.3 0.0
19/06:30am 25.4 29.3 21.9 81 2.3 SW 4 7 2 4 1010.9 1010.9 0.0
19/06:00am 24.0 27.2 21.7 87 1.5 WNW 7 11 4 6 1010.9 1010.9 0.0
19/05:30am 23.5 26.5 20.8 85 1.8 WNW 6 7 3 4 1010.4 1010.4 0.0
19/05:00am 23.7 27.9 21.0 85 1.8 CALM 0 0 0 0 1010.3 1010.3 0.0
19/04:30am 23.9 26.9 20.8 83 2.0 WNW 6 6 3 3 1010.3 1010.3 0.0
19/04:00am 24.1 26.9 20.8 82 2.2 WNW 7 9 4 5 1010.3 1010.3 0.0
19/03:30am 24.5 27.5 21.2 82 2.2 NW 7 11 4 6 1010.4 1010.4 0.0
19/03:00am 24.4 27.6 21.3 83 2.0 NW 6 7 3 4 1010.4 1010.4 0.0
19/02:30am 24.2 27.2 21.3 84 1.9 NW 7 9 4 5 1010.6 1010.6 0.0
19/02:00am 24.4 27.3 21.1 82 2.2 WNW 7 9 4 5 1011.0 1011.0 0.0
19/01:30am 24.7 27.3 21.2 81 2.3 WNW 9 13 5 7 1011.4 1011.4 0.0
19/01:00am 25.2 26.7 21.3 79 2.6 NW 15 19 8 10 1011.7 1011.7 0.0
19/12:30am 25.0 27.8 21.5 81 2.3 NW 9 13 5 7 1012.2 1012.2 0.0
19/12:00am 25.2 28.3 21.5 80 2.5 WNW 7 9 4 5 1012.4 1012.4 0.0
 
Date/Time
EST
Temp
°C
App
Temp
°C
Dew
Point
Rel
Hum
%
Delta-T
°C
Wind Press
QNH
hPa
Press
MSL
hPa
Rain
since 9 am
mm
Dir
 
Spd
km/h
Gust
km/h
Spd
kts
Gust
kts
18/11:30pm 26.2 28.4 21.8 77 2.9 WNW 13 19 7 10 1012.7 1012.7 0.0
18/11:00pm 26.6 28.6 22.2 77 3.0 W 15 20 8 11 1012.8 1012.8 0.0
18/10:30pm 26.6 28.5 22.0 76 3.1 NNW 15 22 8 12 1012.0 1012.0 0.0
18/10:00pm 26.5 27.7 22.1 77 3.0 NNW 19 22 10 12 1012.0 1012.0 0.0
18/09:30pm 26.8 28.5 22.4 77 3.0 NNW 17 24 9 13 1012.0 1012.0 0.0
18/09:00pm 27.0 28.3 22.4 76 3.1 N 19 24 10 13 1011.9 1011.9 0.0
18/08:30pm 27.2 28.3 22.4 75 3.2 N 20 30 11 16 1011.5 1011.5 0.0
18/08:00pm 27.3 28.0 22.3 74 3.4 N 22 33 12 18 1011.1 1011.1 0.0
18/07:30pm 27.3 28.0 22.3 74 3.4 N 22 30 12 16 1010.5 1010.5 0.0
18/07:00pm 27.5 26.9 22.0 72 3.7 N 28 35 15 19 1010.0 1010.0 0.0
18/06:30pm 27.8 28.1 22.3 72 3.7 N 24 33 13 18 1009.8 1009.8 0.0
18/06:00pm 28.6 27.7 22.1 68 4.4 N 30 39 16 21 1009.7 1009.7 0.0
18/05:30pm 29.1 28.4 21.8 64 4.9 N 28 39 15 21 1009.2 1009.2 0.0
18/05:00pm 30.0 29.1 22.2 63 5.3 N 30 41 16 22 1008.6 1008.6 0.0
18/04:30pm 29.9 28.4 21.8 62 5.5 NNE 32 39 17 21 1008.1 1008.1 0.0
18/04:00pm 30.3 29.0 21.4 59 6.0 NNE 30 39 16 21 1008.3 1008.3 0.0
18/03:30pm 30.8 29.5 22.1 59 5.9 NNE 32 41 17 22 1008.4 1008.4 0.0
18/03:00pm 31.4 30.5 22.1 57 6.3 N 30 37 16 20 1008.9 1008.9 0.0
18/02:30pm 31.7 30.6 21.8 55 6.7 N 30 39 16 21 1009.3 1009.3 0.0
18/02:00pm 31.8 31.5 22.5 58 6.4 NNE 28 35 15 19 1009.7 1009.7 0.0
18/01:30pm 31.7 30.4 22.1 56 6.5 NNE 32 41 17 22 1009.9 1009.9 0.0
18/01:00pm 31.8 30.6 21.6 54 6.9 N 30 43 16 23 1010.1 1010.1 0.0
18/12:30pm 31.6 29.9 20.5 51 7.4 N 30 41 16 22 1010.5 1010.5 0.0
18/12:00pm 32.5 31.3 20.1 48 8.2 N 26 37 14 20 1010.8 1010.8 0.0
18/11:30am 32.5 31.9 20.4 49 8.1 NNW 24 33 13 18 1011.3 1011.3 0.0
18/11:00am 32.3 30.1 18.8 44 8.8 N 28 37 15 20 1011.6 1011.6 0.0
18/10:30am 31.8 31.2 20.4 51 7.6 NNW 24 33 13 18 1011.7 1011.7 0.0

Other Formats:

Comma delimited format used in spreadsheet applications
http://www.bom.gov.au/fwo/IDQ60801/IDQ60801.95367.axf

JavaScript Object Notation format (JSON) in row-major order
http://www.bom.gov.au/fwo/IDQ60801/IDQ60801.95367.json